Tropical Cyclones
[Index]
Season 2020-2021 Tropical Cyclone IMOGEN Track Map
Season 2020-2021 Summaries (Operational Data): [AU] [SIO] [SPAC] [SH]
<<- Previous TC | 2020-2021 Season | Next TC ->>

click for intensity scale information  Lat/long Grid: Show Hide

 Date Labels: Show Hide

Operational Tropical Cyclone Data

Name: IMOGEN
Number: 2109

31 Dec 2020 06:00 UTC to 07 Jan 2021 06:00 UTC

    date/time    lat    long     hPa   cat  kts
2020-12-31 06   12.4   136.8    1010         15          
2020-12-31 12   13.0   136.9    1010         15          
2020-12-31 18   13.3   137.0    1010         15          
2021-01-01 00   13.5   137.2    1010         15          
2021-01-01 06   14.3   136.8    1006         15          
2021-01-01 12   14.6   136.3    1002         20          
2021-01-01 18   14.8   136.7    1000         20          
2021-01-02 00   15.0   137.0    1000         20          
2021-01-02 06   15.2   137.3     998         20          
2021-01-02 12   15.6   137.9    1000         20          
2021-01-02 18   16.0   138.5     998         25          
2021-01-03 00   16.3   139.1     999         25          
2021-01-03 06   16.8   139.9     996         30          
2021-01-03 12   17.4   140.9     995    1    40          
2021-01-03 18   17.6   141.5     997    1    35          
2021-01-04 00   17.8   142.1     998         30          
2021-01-04 06   18.0   142.7     998         25          
2021-01-04 12   18.1   143.3    1000         20          
2021-01-04 18   18.2   144.3    1004         20          
2021-01-05 00   18.3   144.8    1002         20          
2021-01-05 06   18.3   145.1    1001         20          
2021-01-05 12   18.3   145.5    1001         20          
2021-01-05 18   18.3   145.8    1007         20          
2021-01-06 00   18.5   146.3    1002         20          
2021-01-06 06   18.9   146.6    1002         20          
2021-01-06 12   19.3   147.0    1003         20          
2021-01-06 18   19.6   147.4    1004         20          
2021-01-07 00   20.0   147.7    1006         15          
2021-01-07 06   20.3   148.0    1007         15          
Winds were reported as (or converted to) 10-min average.

Tropical cyclone tracks developed by Michael Bath using operational warnings and advisories and Google Maps.


Document: tropical_cyclone_imogen.htm
Updated: 7 May 2021
[Australian Severe Weather index] [Copyright Notice] [Email Contacts] [Search This Site] [Privacy Policy]


Main Index Home Page Stock Weather Photos Extreme Storms Discussion Storm News and Storm Chasing Reports Tropical Cyclones / Hurricanes / Typhoons Weather Data and Links Wild Fires / Bushfires Weather Observation Techniques Weather Picture Catalogue Tornado Pictures and Reports Stock Video Footage and DVDs for sale